createdAt,value
2022-10-14T00:04:33.547Z,95984.25
2022-10-14T00:09:35.010Z,95973.34
2022-10-14T00:14:36.423Z,95970.16
2022-10-14T00:19:37.856Z,95981.22
2022-10-14T00:24:39.292Z,95983.22
2022-10-14T00:29:40.684Z,95978.72
2022-10-14T00:34:42.125Z,95969.94
2022-10-14T00:39:43.524Z,95965.47
2022-10-14T00:44:45.835Z,95973.41
2022-10-14T00:49:47.659Z,95975.94
2022-10-14T00:54:56.808Z,95969.94
2022-10-14T01:00:08.741Z,95973.72
2022-10-14T01:05:13.226Z,95974.84
2022-10-14T01:10:28.163Z,95972.19
2022-10-14T01:16:05.246Z,95959.56
2022-10-14T01:21:22.633Z,95955.25
2022-10-14T01:26:45.682Z,95959.41
2022-10-14T01:31:54.674Z,95960.59
2022-10-14T01:37:05.408Z,95959.34
2022-10-14T01:42:34.958Z,95959.63
2022-10-14T01:47:38.442Z,95958.25
2022-10-14T01:52:51.968Z,95952.59
2022-10-14T01:57:57.360Z,95955.25
2022-10-14T02:02:59.630Z,95954.03
2022-10-14T02:08:12.033Z,95945.63
2022-10-14T02:13:26.990Z,95935.28
2022-10-14T02:18:58.455Z,95935.78
2022-10-14T02:24:15.682Z,95928.09
2022-10-14T02:29:22.626Z,95931.44
2022-10-14T02:34:28.078Z,95933.50
2022-10-14T02:39:36.059Z,95927.13
2022-10-14T02:44:51.934Z,95926.44
2022-10-14T02:49:54.265Z,95917.03
2022-10-14T02:54:55.844Z,95903.66
2022-10-14T02:59:57.462Z,95896.50
2022-10-14T03:04:59.673Z,95895.22
2022-10-14T03:10:01.335Z,95901.81
2022-10-14T03:15:08.414Z,95892.66
2022-10-14T03:20:10.656Z,95893.03
2022-10-14T03:25:21.251Z,95889.19
2022-10-14T03:30:31.508Z,95879.16
2022-10-14T03:35:38.913Z,95874.78
2022-10-14T03:40:45.309Z,95873.25
2022-10-14T03:45:48.047Z,95868.28
2022-10-14T03:50:53.004Z,95873.41
2022-10-14T03:55:55.008Z,95857.28
2022-10-14T04:00:56.655Z,95851.94
2022-10-14T04:06:24.075Z,95845.00
2022-10-14T04:11:31.196Z,95838.50
2022-10-14T04:16:39.028Z,95834.78
2022-10-14T04:21:45.440Z,95836.69
2022-10-14T04:26:50.210Z,95825.16
2022-10-14T04:31:59.398Z,95831.41
2022-10-14T04:37:00.971Z,95829.13
2022-10-14T04:42:22.912Z,95816.28
2022-10-14T04:47:29.391Z,95809.34
2022-10-14T04:52:35.402Z,95806.03
2022-10-14T04:57:43.109Z,95797.09
2022-10-14T05:02:45.209Z,95792.09
2022-10-14T05:07:48.681Z,95783.91
2022-10-14T05:12:57.018Z,95786.94
2022-10-14T05:18:03.226Z,95778.97
2022-10-14T05:23:20.944Z,95771.41
2022-10-14T05:28:24.536Z,95774.72
2022-10-14T05:33:26.148Z,95768.47
2022-10-14T05:38:30.736Z,95752.94
2022-10-14T05:43:33.009Z,95751.63
2022-10-14T05:48:36.850Z,95748.31
2022-10-14T05:53:38.949Z,95744.63
2022-10-14T05:58:44.607Z,95738.16
2022-10-14T06:03:50.159Z,95741.00
2022-10-14T06:08:51.687Z,95740.53
2022-10-14T06:13:54.685Z,95745.06
2022-10-14T06:18:56.286Z,95750.91
2022-10-14T06:23:57.875Z,95748.41
2022-10-14T06:28:59.356Z,95745.19
2022-10-14T06:34:05.047Z,95744.91
2022-10-14T06:39:06.461Z,95748.97
2022-10-14T06:44:08.523Z,95745.53
2022-10-14T06:49:10.043Z,95744.66
2022-10-14T06:54:11.466Z,95748.78
2022-10-14T06:59:12.875Z,95750.16
2022-10-14T07:04:14.320Z,95757.59
2022-10-14T07:09:15.739Z,95748.16
2022-10-14T07:14:17.207Z,95731.81
2022-10-14T07:19:18.738Z,95744.84
2022-10-14T07:24:20.249Z,95745.56
2022-10-14T07:29:21.663Z,95755.41
2022-10-14T07:34:23.083Z,95749.84
2022-10-14T07:39:24.519Z,95757.41
2022-10-14T07:44:27.331Z,95765.72
2022-10-14T07:49:29.013Z,95765.38
2022-10-14T07:54:30.794Z,95766.19
2022-10-14T07:59:32.282Z,95774.81
2022-10-14T08:04:33.750Z,95777.19
2022-10-14T08:09:35.771Z,95777.69
2022-10-14T08:14:37.372Z,95778.41
2022-10-14T08:19:38.928Z,95781.72
2022-10-14T08:24:40.368Z,95772.44
2022-10-14T08:29:41.873Z,95771.81
2022-10-14T08:34:43.285Z,95765.34
2022-10-14T08:39:44.672Z,95781.44
2022-10-14T08:44:55.267Z,95776.97
2022-10-14T08:50:06.287Z,95786.41
2022-10-14T08:55:35.401Z,95780.59
2022-10-14T09:00:41.187Z,95790.03
2022-10-14T09:05:42.772Z,95797.03
2022-10-14T09:10:44.807Z,95803.53
2022-10-14T09:15:50.236Z,95807.03
2022-10-14T09:20:53.528Z,95807.91
2022-10-14T09:26:01.546Z,95802.75
2022-10-14T09:31:04.638Z,95805.56
2022-10-14T09:36:13.256Z,95799.06
2022-10-14T09:41:15.860Z,95794.75
2022-10-14T09:46:17.720Z,95793.28
2022-10-14T09:51:28.054Z,95791.59
2022-10-14T09:56:29.397Z,95795.44
2022-10-14T10:01:39.767Z,95775.72
2022-10-14T10:06:52.521Z,95774.06
2022-10-14T10:11:54.383Z,95781.72
2022-10-14T10:17:07.932Z,95777.09
2022-10-14T10:22:15.579Z,95764.47
2022-10-14T10:27:32.910Z,95750.69
2022-10-14T10:33:17.873Z,95747.00
2022-10-14T10:38:25.904Z,95748.44
2022-10-14T10:44:01.105Z,95737.06
2022-10-14T10:49:09.543Z,95731.88
2022-10-14T10:54:28.237Z,95727.50
2022-10-14T11:00:03.909Z,95725.56
2022-10-14T11:05:44.118Z,95715.66
2022-10-14T11:11:16.373Z,95710.78
2022-10-14T11:16:41.167Z,95701.50
2022-10-14T11:21:52.650Z,95698.44
2022-10-14T11:27:05.118Z,95691.50
2022-10-14T11:32:17.558Z,95684.09
2022-10-14T11:37:46.350Z,95677.34
2022-10-14T11:43:13.792Z,95674.84
2022-10-14T11:48:33.571Z,95667.72
2022-10-14T11:53:59.158Z,95673.25
2022-10-14T11:59:09.335Z,95667.06
2022-10-14T12:04:19.103Z,95670.84
2022-10-14T12:09:28.048Z,95660.50
2022-10-14T12:14:35.758Z,95661.25
2022-10-14T12:19:37.482Z,95665.00
2022-10-14T12:24:46.824Z,95663.19
2022-10-14T12:29:50.725Z,95647.41
2022-10-14T12:34:57.774Z,95660.69
2022-10-14T12:40:02.110Z,95647.75
2022-10-14T12:45:24.574Z,95635.84
2022-10-14T12:50:37.428Z,95631.16
2022-10-14T12:55:54.182Z,95629.00
2022-10-14T13:01:00.406Z,95626.81
2022-10-14T13:06:29.591Z,95624.16
2022-10-14T13:11:31.008Z,95606.09
2022-10-14T13:16:34.759Z,95598.09
2022-10-14T13:21:36.585Z,95596.13
2022-10-14T13:26:58.832Z,95581.94
2022-10-14T13:32:12.371Z,95585.03
2022-10-14T13:37:30.309Z,95591.47
2022-10-14T13:42:36.241Z,95595.53
2022-10-14T13:47:42.005Z,95588.25
2022-10-14T13:52:50.351Z,95587.16
2022-10-14T13:58:18.551Z,95596.31
2022-10-14T14:03:34.413Z,95597.09
2022-10-14T14:08:46.445Z,95599.50
2022-10-14T14:14:02.010Z,95598.38
2022-10-14T14:19:08.808Z,95599.06
2022-10-14T14:24:25.239Z,95603.25
2022-10-14T14:29:31.253Z,95611.88
2022-10-14T14:34:34.448Z,95600.06
2022-10-14T14:39:36.516Z,95603.25
2022-10-14T14:44:39.119Z,95602.59
2022-10-14T14:49:40.783Z,95611.88
2022-10-14T14:54:47.002Z,95614.53
2022-10-14T14:59:54.356Z,95603.97
2022-10-14T15:05:01.141Z,95597.19
2022-10-14T15:10:06.364Z,95599.31
2022-10-14T15:15:33.176Z,95596.00
2022-10-14T15:20:41.945Z,95600.19
2022-10-14T15:25:57.154Z,95598.09
2022-10-14T15:31:03.044Z,95593.78
2022-10-14T15:36:11.510Z,95599.47
2022-10-14T15:41:12.929Z,95603.72
2022-10-14T15:46:14.340Z,95606.25
2022-10-14T15:51:21.163Z,95600.78
2022-10-14T15:56:23.001Z,95595.47
2022-10-14T16:01:24.610Z,95593.47
2022-10-14T16:06:26.003Z,95585.31
2022-10-14T16:11:29.630Z,95588.31
2022-10-14T16:16:35.977Z,95592.31
2022-10-14T16:21:38.359Z,95599.44
2022-10-14T16:26:39.783Z,95592.78
2022-10-14T16:31:42.000Z,95590.13
2022-10-14T16:36:44.521Z,95588.81
2022-10-14T16:41:46.306Z,95584.69
2022-10-14T16:46:48.359Z,95587.69
2022-10-14T16:51:49.764Z,95591.03
2022-10-14T16:56:51.210Z,95587.22
2022-10-14T17:01:52.693Z,95570.13
2022-10-14T17:06:55.051Z,95587.06
2022-10-14T17:11:58.664Z,95580.75
2022-10-14T17:17:00.360Z,95572.97
2022-10-14T17:22:02.181Z,95563.50
2022-10-14T17:27:03.834Z,95564.66
2022-10-14T17:32:05.234Z,95557.88
2022-10-14T17:37:06.669Z,95555.22
2022-10-14T17:42:08.105Z,95549.06
2022-10-14T17:47:10.130Z,95550.06
2022-10-14T17:52:11.536Z,95548.59
2022-10-14T17:57:12.948Z,95550.72
2022-10-14T18:02:17.520Z,95543.09
2022-10-14T18:07:18.957Z,95549.06
2022-10-14T18:12:20.381Z,95547.22
2022-10-14T18:17:22.113Z,95535.97
2022-10-14T18:22:23.653Z,95524.50
2022-10-14T18:27:25.613Z,95522.53
2022-10-14T18:32:27.102Z,95518.38
2022-10-14T18:37:28.504Z,95513.06
2022-10-14T18:42:29.907Z,95514.91
2022-10-14T18:47:31.313Z,95525.00
2022-10-14T18:52:32.744Z,95517.06
2022-10-14T18:57:34.130Z,95509.09
2022-10-14T19:02:35.534Z,95522.69
2022-10-14T19:07:36.927Z,95505.63
2022-10-14T19:12:38.306Z,95517.03
2022-10-14T19:17:39.783Z,95519.38
2022-10-14T19:22:41.196Z,95512.09
2022-10-14T19:27:43.450Z,95505.44
2022-10-14T19:32:44.877Z,95501.47
2022-10-14T19:37:46.273Z,95497.63
2022-10-14T19:42:47.691Z,95505.59
2022-10-14T19:47:49.108Z,95504.59
2022-10-14T19:52:50.506Z,95509.75
2022-10-14T19:57:51.924Z,95514.06
2022-10-14T20:02:53.315Z,95506.78
2022-10-14T20:07:55.115Z,95497.50
2022-10-14T20:12:56.561Z,95502.13
2022-10-14T20:17:57.948Z,95492.47
2022-10-14T20:22:59.422Z,95502.06
2022-10-14T20:28:00.887Z,95491.81
2022-10-14T20:33:02.262Z,95483.56
2022-10-14T20:38:04.428Z,95477.38
2022-10-14T20:43:05.826Z,95466.25
2022-10-14T20:48:07.750Z,95466.75
2022-10-14T20:53:09.157Z,95458.16
2022-10-14T20:58:10.586Z,95446.69
2022-10-14T21:03:11.979Z,95448.03
2022-10-14T21:08:13.375Z,95441.06
2022-10-14T21:13:14.792Z,95439.75
2022-10-14T21:18:16.198Z,95436.09
2022-10-14T21:23:18.210Z,95424.81
2022-10-14T21:28:19.666Z,95422.84
2022-10-14T21:33:21.122Z,95413.03
2022-10-14T21:38:22.515Z,95410.91
2022-10-14T21:43:24.319Z,95407.25
2022-10-14T21:48:25.712Z,95412.22
2022-10-14T21:53:27.131Z,95406.25
2022-10-14T21:58:29.132Z,95411.22
2022-10-14T22:03:30.676Z,95410.22
2022-10-14T22:08:35.416Z,95385.69
2022-10-14T22:13:36.789Z,95385.16
2022-10-14T22:18:38.166Z,95374.91
2022-10-14T22:23:39.629Z,95381.50
2022-10-14T22:28:41.742Z,95380.22
2022-10-14T22:33:44.033Z,95362.44
2022-10-14T22:38:46.498Z,95355.84
2022-10-14T22:43:56.209Z,95352.84
2022-10-14T22:48:58.477Z,95360.47
2022-10-14T22:54:00.032Z,95347.22
2022-10-14T22:59:07.097Z,95350.34
2022-10-14T23:04:09.733Z,95348.00
2022-10-14T23:09:11.137Z,95344.50
2022-10-14T23:14:12.544Z,95335.59
2022-10-14T23:19:13.936Z,95332.09
2022-10-14T23:24:15.334Z,95337.41
2022-10-14T23:29:16.739Z,95333.13
2022-10-14T23:34:18.250Z,95338.59
2022-10-14T23:39:19.634Z,95341.56
2022-10-14T23:44:21.024Z,95334.28
2022-10-14T23:49:25.909Z,95332.63
2022-10-14T23:54:28.037Z,95336.28
2022-10-14T23:59:29.417Z,95328.50
